Time;durP1;ratioP1;P1;durP2;ratioP2;P2;SDS_P1;SDS_P2;PMS_P1;PMS_P2;Temp;Humidity;BMP_temperature;BMP_pressure;BME280_temperature;BME280_humidity;BME280_pressure;Samples;Min_cycle;Max_cycle;Signal;HPM_P1;HPM_P2
2023/09/13 00:01:34;;;;;;;;;;;;;;;17.94;60.33;100487.55;109202;1262;67987;-84
2023/09/13 00:04:20;;;;;;;;;;;;;;;17.94;60.39;100488.64;109163;1263;71284;-84
2023/09/13 00:07:06;;;;;;;;;;;;;;;17.95;60.41;100488.25;109270;1266;59174;-84
2023/09/13 00:09:52;;;;;;;;;;;;;;;17.94;60.40;100489.84;109186;1262;58850;-85
2023/09/13 00:12:38;;;;;;;;;;;;;;;17.95;60.45;100488.59;109175;1262;73085;-84
2023/09/13 00:15:24;;;;;;;;;;;;;;;17.97;60.50;100481.16;109153;1262;66851;-85
2023/09/13 00:18:11;;;;;;;;;;;;;;;17.97;60.44;100476.61;109285;1262;71055;-85
2023/09/13 00:20:57;;;;;;;;;;;;;;;17.96;60.57;100474.60;109159;1263;59047;-85
2023/09/13 00:23:44;;;;;;;;;;;;;;;17.95;60.63;100473.20;109182;1263;61112;-84
2023/09/13 00:26:30;;;;;;;;;;;;;;;17.97;60.68;100469.29;109198;1263;73242;-84
2023/09/13 00:29:16;;;;;;;;;;;;;;;17.96;60.66;100465.51;109297;1263;67304;-84
2023/09/13 00:32:02;;;;;;;;;;;;;;;17.96;60.74;100464.45;109255;1262;71043;-84
2023/09/13 00:34:48;;;;;;;;;;;;;;;17.96;60.73;100463.08;109089;1263;58839;-84
2023/09/13 00:37:34;;;;;;;;;;;;;;;17.95;60.65;100465.38;109108;1262;58989;-84
2023/09/13 00:40:20;;;;;;;;;;;;;;;17.92;60.70;100463.09;109162;1263;73285;-84
2023/09/13 00:43:06;;;;;;;;;;;;;;;17.89;60.78;100464.98;109203;1262;67317;-85
2023/09/13 00:45:51;;;;;;;;;;;;;;;17.86;60.74;100464.40;109167;1262;71318;-85
2023/09/13 00:48:38;;;;;;;;;;;;;;;17.83;61.03;100467.16;109268;1262;58950;-84
2023/09/13 00:51:24;;;;;;;;;;;;;;;17.83;61.05;100464.36;109209;1263;59014;-84
2023/09/13 00:54:10;;;;;;;;;;;;;;;17.82;60.84;100465.31;109140;1262;73180;-84
2023/09/13 00:56:57;;;;;;;;;;;;;;;17.74;61.03;100461.51;109289;1262;66796;-85
2023/09/13 00:59:43;;;;;;;;;;;;;;;17.70;61.08;100460.63;109104;1263;71230;-84
2023/09/13 01:02:28;;;;;;;;;;;;;;;17.70;61.12;100460.48;109285;1262;58893;-84
2023/09/13 01:05:15;;;;;;;;;;;;;;;17.67;61.18;100465.02;109180;1263;58863;-84
2023/09/13 01:08:03;;;;;;;;;;;;;;;17.61;61.20;100466.66;109160;1263;74121;-84
2023/09/13 01:10:48;;;;;;;;;;;;;;;17.60;61.28;100465.70;109176;1266;68148;-84
2023/09/13 01:13:35;;;;;;;;;;;;;;;17.59;61.33;100459.27;109266;1263;71237;-84
2023/09/13 01:16:40;;;;;;;;;;;;;;;17.60;61.27;100459.77;109175;1262;59206;-85
2023/09/13 01:19:37;;;;;;;;;;;;;;;17.57;61.23;100460.23;109302;1262;60826;-85
2023/09/13 01:22:29;;;;;;;;;;;;;;;17.52;61.27;100459.03;109286;1262;74380;-85
2023/09/13 01:25:34;;;;;;;;;;;;;;;17.52;61.24;100459.58;109273;1262;67092;-85
2023/09/13 01:28:38;;;;;;;;;;;;;;;17.52;61.32;100455.07;109150;1263;71337;-85
2023/09/13 01:31:26;;;;;;;;;;;;;;;17.47;61.43;100451.12;109268;1262;58972;-85
2023/09/13 01:34:13;;;;;;;;;;;;;;;17.36;61.47;100448.83;109304;1262;58856;-85
2023/09/13 01:36:58;;;;;;;;;;;;;;;17.29;61.59;100448.65;109040;1262;162171;-85
2023/09/13 01:39:44;;;;;;;;;;;;;;;17.28;61.51;100449.75;109119;1263;68055;-84
2023/09/13 01:42:31;;;;;;;;;;;;;;;17.27;61.61;100450.84;109148;1263;71282;-84
2023/09/13 01:45:18;;;;;;;;;;;;;;;17.25;61.61;100454.05;109264;1262;58846;-85
2023/09/13 01:48:04;;;;;;;;;;;;;;;17.24;61.63;100456.72;109328;1262;59158;-85
2023/09/13 01:50:51;;;;;;;;;;;;;;;17.20;61.55;100455.69;109179;1262;73244;-85
2023/09/13 01:53:43;;;;;;;;;;;;;;;17.15;61.69;100456.10;109281;1263;68254;-85
2023/09/13 01:56:29;;;;;;;;;;;;;;;17.14;61.77;100449.71;109269;1262;71071;-84
2023/09/13 01:59:15;;;;;;;;;;;;;;;17.16;61.78;100452.75;109117;1263;59197;-85
2023/09/13 02:02:01;;;;;;;;;;;;;;;17.17;61.82;100453.02;109270;1262;58937;-85
2023/09/13 02:04:49;;;;;;;;;;;;;;;17.15;61.83;100452.45;109290;1263;74259;-84
2023/09/13 02:07:35;;;;;;;;;;;;;;;17.13;61.98;100453.21;109183;1263;67384;-84
2023/09/13 02:10:21;;;;;;;;;;;;;;;17.11;61.87;100452.99;109143;1263;71107;-85
2023/09/13 02:13:07;;;;;;;;;;;;;;;17.11;61.99;100453.34;109175;1262;58817;-85
2023/09/13 02:15:53;;;;;;;;;;;;;;;17.08;62.03;100453.98;109283;1263;58925;-84
2023/09/13 02:18:39;;;;;;;;;;;;;;;17.04;61.95;100448.41;109302;1262;74499;-85
2023/09/13 02:21:25;;;;;;;;;;;;;;;16.96;62.08;100442.86;109305;1263;67337;-85
2023/09/13 02:24:11;;;;;;;;;;;;;;;16.87;62.04;100443.95;109178;1266;71164;-85
2023/09/13 02:26:57;;;;;;;;;;;;;;;16.78;62.15;100437.05;109265;1262;58829;-85
2023/09/13 02:29:43;;;;;;;;;;;;;;;16.73;62.23;100435.03;109138;1263;59166;-85
2023/09/13 02:32:29;;;;;;;;;;;;;;;16.73;62.25;100430.48;109034;1263;74948;-85
2023/09/13 02:35:15;;;;;;;;;;;;;;;16.74;62.28;100431.85;109165;1263;67259;-85
2023/09/13 02:38:01;;;;;;;;;;;;;;;16.76;62.31;100427.07;109299;1262;71599;-85
2023/09/13 02:40:47;;;;;;;;;;;;;;;16.78;62.51;100427.48;109293;1262;59162;-85
2023/09/13 02:43:33;;;;;;;;;;;;;;;16.79;62.45;100428.65;109106;1263;59297;-85
2023/09/13 02:46:19;;;;;;;;;;;;;;;16.81;62.47;100425.61;109293;1262;74222;-85
2023/09/13 02:49:05;;;;;;;;;;;;;;;16.82;62.36;100422.06;109190;1263;68206;-85
2023/09/13 02:51:52;;;;;;;;;;;;;;;16.83;62.46;100414.36;109105;1263;71884;-85
2023/09/13 02:54:37;;;;;;;;;;;;;;;16.81;62.37;100413.07;109177;1263;59211;-85
2023/09/13 02:57:23;;;;;;;;;;;;;;;16.80;62.56;100406.49;109160;1263;58972;-85
2023/09/13 03:00:09;;;;;;;;;;;;;;;16.81;62.51;100403.34;109180;1263;74380;-85
2023/09/13 03:02:55;;;;;;;;;;;;;;;16.80;62.58;100401.79;109256;1262;67060;-84
2023/09/13 03:05:41;;;;;;;;;;;;;;;16.79;62.55;100405.84;109077;1263;72413;-84
2023/09/13 03:08:27;;;;;;;;;;;;;;;16.75;62.61;100404.11;109287;1262;58856;-84
2023/09/13 03:11:17;;;;;;;;;;;;;;;16.70;62.66;100398.59;109309;1262;59606;-85
2023/09/13 03:14:03;;;;;;;;;;;;;;;16.69;62.76;100397.98;109261;1262;73476;-85
2023/09/13 03:16:49;;;;;;;;;;;;;;;16.71;62.83;100401.52;109202;1262;67986;-86
2023/09/13 03:19:35;;;;;;;;;;;;;;;16.70;62.78;100401.04;109163;1263;72453;-85
2023/09/13 03:22:21;;;;;;;;;;;;;;;16.70;62.86;100401.90;109321;1262;59231;-85
2023/09/13 03:25:07;;;;;;;;;;;;;;;16.66;62.75;100397.76;109129;1263;58969;-85
2023/09/13 03:27:53;;;;;;;;;;;;;;;16.62;62.88;100397.73;109305;1262;74060;-84
2023/09/13 03:30:38;;;;;;;;;;;;;;;16.61;62.79;100394.50;109120;1263;68971;-85
2023/09/13 03:33:24;;;;;;;;;;;;;;;16.59;62.90;100388.81;109281;1263;72413;-85
2023/09/13 03:36:11;;;;;;;;;;;;;;;16.54;62.83;100380.84;109108;1263;58917;-85
2023/09/13 03:38:57;;;;;;;;;;;;;;;16.44;63.07;100375.36;109167;1262;58914;-85
2023/09/13 03:41:43;;;;;;;;;;;;;;;16.44;63.08;100369.48;109204;1262;74499;-84
2023/09/13 03:44:28;;;;;;;;;;;;;;;16.47;63.07;100367.75;109141;1263;68330;-84
2023/09/13 03:47:14;;;;;;;;;;;;;;;16.48;63.10;100366.84;109248;1262;72226;-85
2023/09/13 03:50:00;;;;;;;;;;;;;;;16.45;63.11;100370.80;109131;1263;58714;-85
2023/09/13 03:52:46;;;;;;;;;;;;;;;16.40;63.10;100376.07;109177;1263;59301;-85
2023/09/13 03:55:33;;;;;;;;;;;;;;;16.36;63.24;100375.88;109142;1263;72606;-85
2023/09/13 03:58:19;;;;;;;;;;;;;;;16.32;63.24;100374.70;109137;1262;67479;-84
2023/09/13 04:01:06;;;;;;;;;;;;;;;16.29;63.36;100370.13;108858;1263;166956;-84
2023/09/13 04:03:52;;;;;;;;;;;;;;;16.33;63.29;100366.64;109157;1263;58627;-84
2023/09/13 04:06:39;;;;;;;;;;;;;;;16.39;63.31;100368.13;109290;1262;58231;-85
2023/09/13 04:09:25;;;;;;;;;;;;;;;16.43;63.29;100373.70;109162;1263;74480;-85
2023/09/13 04:12:11;;;;;;;;;;;;;;;16.43;63.39;100380.29;109140;1263;67282;-85
2023/09/13 04:14:56;;;;;;;;;;;;;;;16.43;63.43;100376.80;109136;1262;71179;-85
2023/09/13 04:17:42;;;;;;;;;;;;;;;16.45;63.48;100372.36;109092;1263;59348;-84
2023/09/13 04:20:28;;;;;;;;;;;;;;;16.46;63.48;100376.66;109184;1263;59881;-84
2023/09/13 04:23:14;;;;;;;;;;;;;;;16.46;63.46;100380.14;109300;1263;73203;-85
2023/09/13 04:26:01;;;;;;;;;;;;;;;16.45;63.59;100382.64;109293;1263;68509;-85
2023/09/13 04:28:47;;;;;;;;;;;;;;;16.46;63.53;100378.27;109157;1262;71264;-84
2023/09/13 04:31:33;;;;;;;;;;;;;;;16.47;63.50;100377.17;109123;1263;58878;-84
2023/09/13 04:34:19;;;;;;;;;;;;;;;16.47;63.68;100378.01;109320;1262;59675;-85
2023/09/13 04:37:05;;;;;;;;;;;;;;;16.50;63.68;100382.09;109303;1263;73848;-84
2023/09/13 04:39:51;;;;;;;;;;;;;;;16.48;63.49;100381.79;109316;1262;67485;-85
2023/09/13 04:42:40;;;;;;;;;;;;;;;16.46;63.50;100378.75;108739;1263;576225;-85
2023/09/13 04:45:26;;;;;;;;;;;;;;;16.44;63.59;100378.00;109304;1263;59231;-85
2023/09/13 04:48:12;;;;;;;;;;;;;;;16.45;63.69;100377.95;109138;1263;58820;-85
2023/09/13 04:50:58;;;;;;;;;;;;;;;16.46;63.69;100370.77;109088;1263;72183;-85
2023/09/13 04:53:44;;;;;;;;;;;;;;;16.45;63.69;100367.30;109321;1267;67426;-85
2023/09/13 04:56:30;;;;;;;;;;;;;;;16.48;63.91;100364.23;109083;1263;71240;-85
2023/09/13 04:59:17;;;;;;;;;;;;;;;16.55;63.94;100359.22;109287;1263;59072;-85
2023/09/13 05:02:03;;;;;;;;;;;;;;;16.61;63.87;100362.63;109156;1262;58839;-85
2023/09/13 05:04:49;;;;;;;;;;;;;;;16.66;63.99;100363.98;109183;1263;74011;-86
2023/09/13 05:07:35;;;;;;;;;;;;;;;16.71;64.04;100380.11;109144;1262;67263;-86
2023/09/13 05:10:21;;;;;;;;;;;;;;;16.78;64.04;100388.81;109175;1263;71081;-86
2023/09/13 05:13:08;;;;;;;;;;;;;;;16.85;64.00;100385.20;109183;1262;59362;-86
2023/09/13 05:15:54;;;;;;;;;;;;;;;16.91;64.00;100379.20;109186;1263;59264;-86
2023/09/13 05:18:40;;;;;;;;;;;;;;;16.95;64.10;100379.70;109146;1262;73270;-86
2023/09/13 05:21:26;;;;;;;;;;;;;;;16.99;64.17;100384.56;109207;1263;67217;-86
2023/09/13 05:24:12;;;;;;;;;;;;;;;17.05;64.22;100382.89;109147;1263;71342;-87
2023/09/13 05:26:58;;;;;;;;;;;;;;;17.14;64.28;100389.27;109160;1263;58843;-86
2023/09/13 05:30:04;;;;;;;;;;;;;;;17.20;64.29;100384.60;109166;1263;58811;-88
2023/09/13 05:33:27;;;;;;;;;;;;;;;17.22;64.15;100373.16;109082;1266;74066;-88
2023/09/13 05:36:32;;;;;;;;;;;;;;;17.20;64.37;100371.88;109079;1268;67195;-88
2023/09/13 05:39:40;;;;;;;;;;;;;;;17.23;64.50;100375.23;109008;1266;71829;-88
2023/09/13 05:43:06;;;;;;;;;;;;;;;17.32;64.56;100382.30;109050;1265;58987;-88
2023/09/13 05:46:32;;;;;;;;;;;;;;;17.43;64.51;100395.19;109108;1265;59166;-88
2023/09/13 05:49:57;;;;;;;;;;;;;;;17.54;64.41;100439.98;109055;1266;73255;-88
2023/09/13 05:53:23;;;;;;;;;;;;;;;17.59;64.51;100398.59;109050;1264;68057;-87
2023/09/13 05:56:49;;;;;;;;;;;;;;;17.71;64.69;100436.70;109064;1265;71136;-89
2023/09/13 06:00:15;;;;;;;;;;;;;;;17.85;64.61;100411.30;109056;1266;58975;-88
2023/09/13 06:03:41;;;;;;;;;;;;;;;18.03;64.87;100423.98;108944;1266;60648;-88
2023/09/13 06:07:07;;;;;;;;;;;;;;;18.61;64.77;100398.80;108939;1265;73246;-88
2023/09/13 06:10:32;;;;;;;;;;;;;;;19.53;64.92;100433.96;109005;1266;67292;-89
2023/09/13 06:13:58;;;;;;;;;;;;;;;20.50;64.49;100435.02;108874;1266;73160;-88
2023/09/13 06:17:24;;;;;;;;;;;;;;;21.33;64.26;100444.40;108908;1266;58937;-88
2023/09/13 06:20:50;;;;;;;;;;;;;;;21.94;63.73;100468.13;108890;1265;58635;-89
2023/09/13 06:24:16;;;;;;;;;;;;;;;22.09;63.43;100463.86;108862;1266;73407;-88
2023/09/13 06:27:41;;;;;;;;;;;;;;;22.59;63.69;100480.46;108893;1267;67567;-89
2023/09/13 06:30:28;;;;;;;;;;;;;;;23.40;63.50;100552.72;108916;1266;70372;-88
2023/09/13 06:33:51;;;;;;;;;;;;;;;24.02;62.92;100555.65;108964;1263;59196;-88
2023/09/13 06:36:59;;;;;;;;;;;;;;;23.81;62.49;100533.77;109237;1263;59329;-88
2023/09/13 06:40:06;;;;;;;;;;;;;;;23.47;62.58;100538.85;109197;1263;73809;-87
2023/09/13 06:42:56;;;;;;;;;;;;;;;23.22;62.60;100545.21;109136;1263;67125;-86
2023/09/13 06:45:42;;;;;;;;;;;;;;;22.92;62.64;100540.58;109089;1262;72926;-86
2023/09/13 06:48:29;;;;;;;;;;;;;;;22.76;62.70;100542.02;109080;1268;58939;-86
2023/09/13 06:51:15;;;;;;;;;;;;;;;22.93;62.96;100530.83;109115;1263;58843;-85
2023/09/13 06:54:01;;;;;;;;;;;;;;;23.11;62.43;100525.19;109088;1264;74982;-85
2023/09/13 06:56:47;;;;;;;;;;;;;;;23.07;62.32;100515.64;109113;1263;68555;-85
2023/09/13 06:59:33;;;;;;;;;;;;;;;23.23;62.41;100511.05;109191;1263;72367;-86
2023/09/13 07:02:20;;;;;;;;;;;;;;;23.73;62.19;100501.28;109095;1263;59278;-86
2023/09/13 07:05:06;;;;;;;;;;;;;;;23.88;61.97;100494.21;109112;1263;59529;-86
2023/09/13 07:07:52;;;;;;;;;;;;;;;23.87;61.90;100489.71;109211;1263;74100;-85
2023/09/13 07:10:38;;;;;;;;;;;;;;;23.83;61.78;100486.84;109215;1263;67979;-85
2023/09/13 07:13:25;;;;;;;;;;;;;;;23.68;61.86;100478.94;109103;1263;71140;-85
2023/09/13 07:16:11;;;;;;;;;;;;;;;23.54;61.79;100472.19;109102;1269;58934;-85
2023/09/13 07:18:57;;;;;;;;;;;;;;;23.38;61.89;100478.43;109087;1263;59778;-85
2023/09/13 07:21:43;;;;;;;;;;;;;;;23.21;61.83;100487.08;109048;1263;74353;-85
2023/09/13 07:24:37;;;;;;;;;;;;;;;23.00;61.77;100478.52;109084;1263;67411;-85
2023/09/13 07:27:43;;;;;;;;;;;;;;;22.78;61.80;100471.63;109212;1263;71630;-88
2023/09/13 07:30:29;;;;;;;;;;;;;;;22.55;61.87;100446.31;109213;1262;59183;-86
2023/09/13 07:33:25;;;;;;;;;;;;;;;22.35;61.95;100432.55;109083;1266;58887;-87
2023/09/13 07:36:21;;;;;;;;;;;;;;;22.19;62.03;100447.93;109238;1262;72438;-86
2023/09/13 07:39:11;;;;;;;;;;;;;;;21.97;62.04;100426.37;109116;1266;67490;-86
2023/09/13 07:41:58;;;;;;;;;;;;;;;21.77;62.18;100412.94;109089;1263;73012;-87
2023/09/13 07:44:47;;;;;;;;;;;;;;;21.68;62.28;100405.98;109094;1263;59675;-86
2023/09/13 07:47:53;;;;;;;;;;;;;;;21.62;62.21;100395.36;109124;1263;58861;-87
2023/09/13 07:50:44;;;;;;;;;;;;;;;21.55;62.46;100388.95;109272;1263;74070;-87
2023/09/13 07:53:34;;;;;;;;;;;;;;;21.51;62.47;100392.02;109090;1263;67868;-86
2023/09/13 07:56:28;;;;;;;;;;;;;;;21.55;62.58;100408.80;109237;1263;72501;-87
2023/09/13 07:59:54;;;;;;;;;;;;;;;21.83;62.37;100415.91;109107;1263;59467;-87
2023/09/13 08:03:15;;;;;;;;;;;;;;;;;;;;;
2023/09/13 08:06:29;;;;;;;;;;;;;;;22.12;62.55;100392.30;109272;1262;73155;-89
2023/09/13 08:09:56;;;;;;;;;;;;;;;23.39;62.56;100377.70;109273;1263;67275;-89
2023/09/13 08:13:25;;;;;;;;;;;;;;;24.34;61.47;100368.27;109270;1263;72070;-89
2023/09/13 08:16:51;;;;;;;;;;;;;;;25.45;61.86;100364.80;109265;1263;58840;-89
2023/09/13 08:20:17;;;;;;;;;;;;;;;27.15;60.74;100353.98;109277;1263;59397;-89
2023/09/13 08:23:45;;;;;;;;;;;;;;;27.65;60.32;100337.10;109293;1263;73032;-90
2023/09/13 08:27:11;;;;;;;;;;;;;;;27.31;60.20;100328.20;109282;1262;67005;-89
2023/09/13 08:30:37;;;;;;;;;;;;;;;26.58;60.59;100330.91;109276;1266;72372;-89
2023/09/13 08:34:03;;;;;;;;;;;;;;;26.11;60.66;100340.41;109229;1263;58931;-89
2023/09/13 08:37:40;;;;;;;;;;;;;;;25.70;60.72;100343.41;108755;1269;58851;-89
2023/09/13 08:41:07;;;;;;;;;;;;;;;25.32;60.57;100349.89;108503;1275;74121;-89
2023/09/13 08:44:33;;;;;;;;;;;;;;;25.03;60.59;100351.50;108098;1278;68232;-89
2023/09/13 08:48:01;;;;;;;;;;;;;;;24.93;60.70;100366.28;108137;1279;71489;-89
2023/09/13 08:51:26;;;;;;;;;;;;;;;24.94;60.50;100375.86;108134;1278;59124;-89
2023/09/13 08:54:52;;;;;;;;;;;;;;;24.87;60.22;100373.45;108140;1279;58765;-89
2023/09/13 08:58:18;;;;;;;;;;;;;;;24.73;60.17;100372.23;108098;1278;73320;-89
2023/09/13 09:01:44;;;;;;;;;;;;;;;24.65;60.15;100364.10;108126;1277;67827;-89
2023/09/13 09:05:12;;;;;;;;;;;;;;;24.59;60.21;100359.95;108091;1283;71377;-89
2023/09/13 09:08:37;;;;;;;;;;;;;;;24.54;60.27;100368.86;108111;1279;58982;-90
2023/09/13 09:12:03;;;;;;;;;;;;;;;24.48;60.36;100366.14;108127;1277;59319;-90
2023/09/13 09:15:30;;;;;;;;;;;;;;;24.37;60.15;100370.17;107984;1283;74315;-89
2023/09/13 09:18:56;;;;;;;;;;;;;;;24.23;60.16;100373.03;108429;1276;67260;-89
2023/09/13 09:22:22;;;;;;;;;;;;;;;24.09;60.25;100383.97;108686;1270;73570;-89
2023/09/13 09:25:49;;;;;;;;;;;;;;;23.94;60.19;100391.63;108719;1270;58945;-89
2023/09/13 09:29:15;;;;;;;;;;;;;;;23.80;60.29;100397.27;108725;1271;59837;-89
2023/09/13 09:32:41;;;;;;;;;;;;;;;23.66;60.25;100403.20;108726;1270;74309;-88
2023/09/13 09:35:57;;;;;;;;;;;;;;;23.50;60.14;100399.27;108681;1274;68427;-89
2023/09/13 09:39:04;;;;;;;;;;;;;;;23.38;60.31;100396.60;108666;1274;72843;-89
2023/09/13 09:42:15;;;;;;;;;;;;;;;23.25;60.29;100401.30;108626;1274;58276;-86
2023/09/13 09:45:01;;;;;;;;;;;;;;;23.15;60.32;100409.59;108527;1271;58611;-86
2023/09/13 09:47:49;;;;;;;;;;;;;;;23.06;60.37;100404.04;108669;1272;74454;-86
2023/09/13 09:50:37;;;;;;;;;;;;;;;23.01;60.25;100400.36;108575;1270;67544;-85
2023/09/13 09:53:43;;;;;;;;;;;;;;;22.97;60.57;100402.41;109077;1268;72399;-89
2023/09/13 09:57:09;;;;;;;;;;;;;;;22.93;60.59;100403.62;109249;1266;59259;-89
2023/09/13 10:00:35;;;;;;;;;;;;;;;22.91;60.67;100411.98;109267;1262;59768;-89
2023/09/13 10:04:01;;;;;;;;;;;;;;;22.90;60.60;100416.79;109260;1262;74243;-88
2023/09/13 10:07:27;;;;;;;;;;;;;;;22.89;60.67;100424.78;109244;1263;67287;-89
2023/09/13 10:10:53;;;;;;;;;;;;;;;22.84;60.57;100432.89;109281;1264;73055;-89
2023/09/13 10:14:19;;;;;;;;;;;;;;;22.79;60.68;100435.50;109237;1262;59259;-89
2023/09/13 10:17:33;;;;;;;;;;;;;;;22.77;60.72;100440.38;109275;1263;59004;-89
2023/09/13 10:20:59;;;;;;;;;;;;;;;22.75;60.75;100441.58;109248;1264;74288;-89
2023/09/13 10:24:06;;;;;;;;;;;;;;;22.74;60.89;100449.91;109283;1264;67470;-88
2023/09/13 10:40:32;;;;;;;;;;;;;;;23.01;60.94;100445.21;109316;1264;72011;-91
2023/09/13 11:06:45;;;;;;;;;;;;;;;23.58;60.58;100469.95;109334;1262;71798;-90
2023/09/13 12:17:03;;;;;;;;;;;;;;;23.97;60.82;100482.05;109223;1262;82983;-89
2023/09/13 12:23:04;;;;;;;;;;;;;;;24.15;60.83;100477.55;109282;1262;74597;-90
2023/09/13 12:31:21;;;;;;;;;;;;;;;24.29;60.67;100469.95;109323;1263;58472;-90
2023/09/13 12:42:38;;;;;;;;;;;;;;;24.42;60.29;100461.59;109326;1262;72428;-90
2023/09/13 12:46:04;;;;;;;;;;;;;;;24.45;60.29;100465.39;109308;1262;59128;-90
2023/09/13 12:49:03;;;;;;;;;;;;;;;24.52;60.29;100467.85;109341;1262;59831;-90
2023/09/13 12:57:14;;;;;;;;;;;;;;;24.54;59.99;100471.61;109306;1262;72546;-89
2023/09/13 13:06:02;;;;;;;;;;;;;;;24.38;60.15;100466.67;109365;1263;74594;-90
2023/09/13 13:12:00;;;;;;;;;;;;;;;24.37;60.08;100460.59;109338;1262;72506;-90
2023/09/13 13:18:06;;;;;;;;;;;;;;;24.56;60.21;100460.70;109359;1261;59679;-90
2023/09/13 13:26:47;;;;;;;;;;;;;;;24.88;60.00;100455.56;109369;1264;71088;-90
2023/09/13 13:37:56;;;;;;;;;;;;;;;24.72;59.74;100453.80;109397;1262;67578;-91
2023/09/13 13:56:30;;;;;;;;;;;;;;;24.44;59.87;100449.09;109364;1262;59518;-89
2023/09/13 14:04:37;;;;;;;;;;;;;;;24.44;59.68;100447.90;109382;1263;67112;-90
2023/09/13 14:08:04;;;;;;;;;;;;;;;24.36;59.57;100445.50;108773;1269;71394;-90
2023/09/13 14:11:30;;;;;;;;;;;;;;;24.27;59.74;100442.67;108252;1276;59049;-90
2023/09/13 14:14:56;;;;;;;;;;;;;;;24.21;59.76;100440.29;108403;1280;59094;-89
2023/09/13 14:17:50;;;;;;;;;;;;;;;24.20;59.76;100435.98;109329;1262;74408;-89
2023/09/13 14:24:03;;;;;;;;;;;;;;;24.16;59.76;100434.52;109312;1262;72009;-89
2023/09/13 14:32:33;;;;;;;;;;;;;;;24.21;59.85;100429.73;109303;1262;73193;-90
2023/09/13 14:38:35;;;;;;;;;;;;;;;24.16;59.67;100434.52;109253;1262;71548;-89
2023/09/13 14:42:01;;;;;;;;;;;;;;;24.09;59.73;100433.23;109312;1263;59321;-90
2023/09/13 14:45:27;;;;;;;;;;;;;;;24.06;59.87;100427.98;108633;1273;58828;-90
2023/09/13 14:48:57;;;;;;;;;;;;;;;24.06;59.92;100425.71;108514;1272;74433;-90
2023/09/13 14:52:24;;;;;;;;;;;;;;;24.03;59.89;100432.85;108588;1273;68317;-89
2023/09/13 14:55:21;;;;;;;;;;;;;;;23.95;59.82;100428.16;109270;1263;72555;-89
2023/09/13 14:58:22;;;;;;;;;;;;;;;23.88;59.90;100429.60;109333;1262;58896;-90
2023/09/13 15:14:33;;;;;;;;;;;;;;;23.81;60.12;100445.44;109307;1262;59313;-90
2023/09/13 15:30:53;;;;;;;;;;;;;;;23.66;60.02;100472.91;109322;1262;74490;-90
2023/09/13 15:37:05;;;;;;;;;;;;;;;23.55;59.96;100477.95;109398;1263;71367;-90
2023/09/13 15:40:31;;;;;;;;;;;;;;;23.48;59.95;100484.38;109322;1262;59393;-89
2023/09/13 15:43:57;;;;;;;;;;;;;;;23.42;59.93;100485.50;108689;1270;59406;-89
2023/09/13 17:29:26;;;;;;;;;;;;;;;21.55;60.55;100562.58;109353;1262;74321;-88
2023/09/13 17:32:51;;;;;;;;;;;;;;;21.53;60.63;100564.36;109289;1263;68481;-88
2023/09/13 17:36:17;;;;;;;;;;;;;;;21.50;60.66;100561.37;109187;1262;71263;-88
2023/09/13 17:39:56;;;;;;;;;;;;;;;;;;;;;
2023/09/13 17:43:13;;;;;;;;;;;;;;;21.48;60.79;100567.05;108877;1267;59139;-88
2023/09/13 17:46:39;;;;;;;;;;;;;;;21.45;60.82;100579.67;108964;1264;73210;-87
2023/09/13 18:16:06;;;;;;;;;;;;;;;21.16;61.68;100626.38;109380;1265;67035;-90
2023/09/13 18:26:42;;;;;;;;;;;;;;;21.04;61.60;100675.98;109333;1264;74448;-89
2023/09/13 18:34:49;;;;;;;;;;;;;;;20.78;61.84;100675.58;109162;1263;59446;-89
2023/09/13 18:37:48;;;;;;;;;;;;;;;20.74;61.94;100677.59;109314;1262;60496;-89
2023/09/13 18:56:10;;;;;;;;;;;;;;;20.43;62.29;100704.40;109341;1263;65953;-89
2023/09/13 18:59:06;;;;;;;;;;;;;;;20.36;62.36;100712.94;109329;1262;72493;-90
2023/09/13 19:10:16;;;;;;;;;;;;;;;20.17;62.64;100740.45;109394;1263;65985;-91
2023/09/13 20:15:31;;;;;;;;;;;;;;;19.31;64.39;100795.99;109386;1263;65369;-89
2023/09/13 20:18:57;;;;;;;;;;;;;;;19.26;64.33;100793.09;109262;1263;72297;-89
2023/09/13 20:22:24;;;;;;;;;;;;;;;19.22;64.40;100795.25;109344;1262;59328;-90
2023/09/13 20:25:50;;;;;;;;;;;;;;;19.19;64.49;100798.18;109387;1262;58248;-90
2023/09/13 20:29:16;;;;;;;;;;;;;;;19.14;64.54;100806.11;109346;1262;74218;-90
2023/09/13 20:32:42;;;;;;;;;;;;;;;19.08;64.58;100809.37;109386;1262;67250;-90
2023/09/13 20:36:09;;;;;;;;;;;;;;;19.02;64.79;100807.21;109367;1262;72343;-89
2023/09/13 20:39:35;;;;;;;;;;;;;;;18.97;64.80;100809.01;109349;1262;59129;-89
2023/09/13 20:43:02;;;;;;;;;;;;;;;18.94;64.84;100813.51;109365;1262;58879;-89
2023/09/13 20:46:31;;;;;;;;;;;;;;;18.92;64.89;100814.18;109304;1263;74301;-90
2023/09/13 20:49:55;;;;;;;;;;;;;;;18.86;65.04;100817.23;109355;1263;67281;-90
2023/09/13 20:53:21;;;;;;;;;;;;;;;18.85;65.07;100814.98;109323;1264;71490;-89
2023/09/13 20:56:47;;;;;;;;;;;;;;;18.87;65.29;100818.42;109309;1263;58942;-90
2023/09/13 21:00:14;;;;;;;;;;;;;;;18.88;65.34;100818.02;109323;1263;59229;-90
2023/09/13 21:03:40;;;;;;;;;;;;;;;18.87;65.30;100821.90;108740;1270;73328;-90
2023/09/13 21:07:07;;;;;;;;;;;;;;;18.88;65.47;100824.48;108787;1272;67395;-89
2023/09/13 21:10:33;;;;;;;;;;;;;;;18.89;65.42;100831.06;108774;1271;72781;-89
2023/09/13 21:13:59;;;;;;;;;;;;;;;18.92;65.51;100831.61;108767;1270;59209;-90
2023/09/13 21:17:25;;;;;;;;;;;;;;;18.97;65.66;100834.73;108806;1269;60195;-89
2023/09/13 21:20:52;;;;;;;;;;;;;;;18.99;65.51;100840.38;108761;1271;73168;-89
2023/09/13 21:24:17;;;;;;;;;;;;;;;18.99;65.68;100844.58;108782;1272;67884;-89
2023/09/13 21:27:44;;;;;;;;;;;;;;;19.01;65.70;100844.64;108682;1270;71269;-89
2023/09/13 21:31:08;;;;;;;;;;;;;;;19.02;65.83;100843.70;108701;1272;58899;-89
2023/09/13 21:34:33;;;;;;;;;;;;;;;19.01;65.70;100849.00;108736;1270;58920;-89
2023/09/13 21:37:57;;;;;;;;;;;;;;;19.00;65.87;100846.80;108702;1270;74226;-90
2023/09/13 21:41:21;;;;;;;;;;;;;;;19.00;65.92;100850.10;109273;1263;68094;-90
2023/09/13 21:44:46;;;;;;;;;;;;;;;19.01;66.10;100852.85;109318;1262;71107;-90
2023/09/13 21:48:10;;;;;;;;;;;;;;;19.02;66.14;100850.90;108778;1269;59275;-90
2023/09/13 21:51:36;;;;;;;;;;;;;;;19.03;66.21;100847.01;108794;1270;58895;-89
2023/09/13 21:55:02;;;;;;;;;;;;;;;19.06;66.13;100853.70;108791;1270;73457;-90
2023/09/13 21:58:29;;;;;;;;;;;;;;;19.05;66.12;100856.49;108395;1275;67308;-90
2023/09/13 22:01:55;;;;;;;;;;;;;;;19.03;66.26;100862.90;108382;1275;71773;-89
2023/09/13 22:05:22;;;;;;;;;;;;;;;19.01;66.23;100868.39;108343;1275;60531;-89
2023/09/13 22:08:48;;;;;;;;;;;;;;;19.02;66.34;100870.80;108431;1275;59490;-89
2023/09/13 22:12:14;;;;;;;;;;;;;;;19.01;66.46;100871.55;108404;1279;73933;-89
2023/09/13 22:15:40;;;;;;;;;;;;;;;18.96;66.45;100877.92;108448;1275;67320;-89
2023/09/13 22:19:08;;;;;;;;;;;;;;;18.92;66.47;100881.08;108449;1275;71283;-90
2023/09/13 22:22:34;;;;;;;;;;;;;;;18.88;66.49;100879.15;107787;1282;59009;-90
2023/09/13 22:26:01;;;;;;;;;;;;;;;18.85;66.64;100879.78;107485;1286;60809;-90
2023/09/13 22:29:27;;;;;;;;;;;;;;;18.82;66.59;100884.33;106779;1291;74261;-90
2023/09/13 22:32:53;;;;;;;;;;;;;;;18.76;66.62;100887.38;106827;1290;68217;-89
2023/09/13 22:36:20;;;;;;;;;;;;;;;18.70;66.77;100888.58;107231;1286;72552;-90
2023/09/13 22:39:47;;;;;;;;;;;;;;;18.68;66.82;100886.39;106857;1291;59001;-90
2023/09/13 22:43:14;;;;;;;;;;;;;;;18.66;66.82;100889.46;106857;1291;59766;-90
2023/09/13 22:46:08;;;;;;;;;;;;;;;18.65;66.81;100889.30;109360;1263;74230;-90
2023/09/13 22:49:34;;;;;;;;;;;;;;;18.62;67.02;100894.34;109394;1262;67772;-90
2023/09/13 22:53:01;;;;;;;;;;;;;;;18.61;67.01;100901.02;109371;1262;72469;-90